Time;durP1;ratioP1;P1;durP2;ratioP2;P2;SDS_P1;SDS_P2;PMS_P1;PMS_P2;Temp;Humidity;BMP_temperature;BMP_pressure;BME280_temperature;BME280_humidity;BME280_pressure;Samples;Min_cycle;Max_cycle;Signal;HPM_P1;HPM_P2
2023/06/25 00:02:12;;;;;;;;;12.75;12.75;;;;;17.85;59.60;100339.41;5094550;28;8841;-58
2023/06/25 00:04:40;;;;;;;;;12.00;10.40;;;;;17.84;59.90;100345.00;5095254;28;8980;-58
2023/06/25 00:07:08;;;;;;;;;13.50;13.00;;;;;17.87;59.78;100339.28;5095264;28;8870;-58
2023/06/25 00:09:36;;;;;;;;;13.00;12.00;;;;;17.87;59.51;100340.13;5094705;28;8829;-59
2023/06/25 00:12:04;;;;;;;;;12.00;12.00;;;;;17.87;59.80;100336.59;5094800;28;8938;-60
2023/06/25 00:14:32;;;;;;;;;12.50;10.00;;;;;17.84;59.92;100334.22;5094501;28;8873;-58
2023/06/25 00:17:00;;;;;;;;;13.00;13.00;;;;;17.81;59.98;100338.06;5096374;28;9605;-57
2023/06/25 00:19:28;;;;;;;;;10.00;9.40;;;;;17.77;60.12;100331.28;5098492;28;8971;-60
2023/06/25 00:21:56;;;;;;;;;12.60;12.00;;;;;17.72;59.99;100328.25;5098321;28;8839;-61
2023/06/25 00:24:23;;;;;;;;;12.40;10.80;;;;;17.67;60.04;100329.69;5097766;28;8925;-60
2023/06/25 00:26:51;;;;;;;;;9.80;9.80;;;;;17.61;60.22;100325.78;5098177;28;8817;-58
2023/06/25 00:29:19;;;;;;;;;12.00;12.00;;;;;17.55;59.99;100323.72;5098224;28;8821;-58
2023/06/25 00:31:47;;;;;;;;;12.40;12.00;;;;;17.51;60.19;100322.34;5098645;28;8949;-59
2023/06/25 00:34:19;;;;;;;;;12.00;12.00;;;;;17.48;60.50;100319.13;5098452;28;8856;-58
2023/06/25 00:36:51;;;;;;;;;13.00;13.00;;;;;17.45;60.89;100317.59;5098329;28;8837;-60
2023/06/25 00:39:19;;;;;;;;;11.50;10.00;;;;;17.44;60.77;100318.59;5097562;28;8821;-59
2023/06/25 00:41:47;;;;;;;;;10.00;10.00;;;;;17.41;60.78;100316.22;5098565;28;8821;-58
2023/06/25 00:44:15;;;;;;;;;15.00;13.00;;;;;17.40;60.68;100311.00;5099150;28;8849;-59
2023/06/25 00:46:42;;;;;;;;;16.50;15.50;;;;;17.38;60.37;100313.81;5097745;28;8829;-57
2023/06/25 00:49:10;;;;;;;;;14.00;13.00;;;;;17.36;60.71;100310.44;5097135;28;8824;-58
2023/06/25 00:51:38;;;;;;;;;15.00;13.50;;;;;17.35;60.80;100302.50;5097862;28;8851;-58
2023/06/25 00:54:06;;;;;;;;;8.75;8.00;;;;;17.34;60.66;100312.44;5097685;28;8841;-57
2023/06/25 00:56:34;;;;;;;;;13.00;13.00;;;;;17.32;60.56;100300.94;5097728;28;8944;-58
2023/06/25 00:59:01;;;;;;;;;12.25;11.50;;;;;17.33;60.81;100309.88;5097241;28;9165;-58
2023/06/25 01:01:31;;;;;;;;;13.00;12.50;;;;;17.29;60.91;100301.28;5096990;28;8853;-57
2023/06/25 01:04:00;;;;;;;;;10.50;10.50;;;;;17.29;61.06;100303.09;5097463;28;8837;-59
2023/06/25 01:06:29;;;;;;;;;16.00;15.25;;;;;17.28;60.92;100313.06;5077645;28;8857;-59
2023/06/25 01:08:59;;;;;;;;;14.00;13.25;;;;;17.26;60.70;100292.66;5077437;28;8844;-59
2023/06/25 01:11:27;;;;;;;;;14.25;14.25;;;;;17.23;61.17;100293.81;5077344;28;8835;-59
2023/06/25 01:13:55;;;;;;;;;12.75;12.00;;;;;17.21;60.85;100290.44;5090673;28;8869;-60
2023/06/25 01:16:23;;;;;;;;;11.00;10.00;;;;;17.21;61.22;100303.03;5097757;28;8818;-57
2023/06/25 01:18:51;;;;;;;;;9.50;9.50;;;;;17.18;61.17;100296.16;5097464;28;8836;-58
2023/06/25 01:21:31;;;;;;;;;14.00;12.75;;;;;17.17;61.10;100285.53;5077006;28;8839;-58
2023/06/25 01:23:59;;;;;;;;;6.00;6.00;;;;;17.18;60.97;100296.16;5076645;28;8904;-58
2023/06/25 01:26:27;;;;;;;;;10.00;10.00;;;;;17.18;61.17;100289.91;5077231;28;8852;-58
2023/06/25 01:28:55;;;;;;;;;9.00;7.00;;;;;17.18;61.11;100288.06;5077510;28;8983;-58
2023/06/25 01:31:30;;;;;;;;;12.25;12.25;;;;;17.16;60.79;100287.34;5077436;28;8858;-58
2023/06/25 01:33:59;;;;;;;;;14.00;12.75;;;;;17.13;60.83;100279.59;5076602;28;8902;-59
2023/06/25 01:36:27;;;;;;;;;12.00;10.00;;;;;17.10;61.41;100282.59;5076987;28;9513;-59
2023/06/25 01:38:56;;;;;;;;;15.25;14.50;;;;;17.07;61.51;100279.38;5076567;28;9636;-58
2023/06/25 01:41:24;;;;;;;;;16.00;15.00;;;;;17.06;61.17;100270.47;5097196;28;8971;-59
2023/06/25 01:43:52;;;;;;;;;12.00;12.00;;;;;17.02;61.40;100277.13;5096963;28;8859;-59
2023/06/25 01:46:20;;;;;;;;;15.75;15.75;;;;;16.99;61.29;100272.06;5097386;28;8963;-58
2023/06/25 01:48:48;;;;;;;;;15.25;12.50;;;;;16.98;61.73;100272.22;5096707;28;8918;-58
2023/06/25 01:51:15;;;;;;;;;12.75;12.25;;;;;16.95;61.54;100265.31;5096236;28;8855;-60
2023/06/25 01:53:43;;;;;;;;;15.00;14.00;;;;;16.93;61.45;100264.63;5097077;28;8837;-58
2023/06/25 01:56:11;;;;;;;;;13.00;12.50;;;;;16.92;61.52;100268.31;5096150;28;8861;-59
2023/06/25 01:58:39;;;;;;;;;10.00;10.00;;;;;16.87;61.58;100267.91;5096416;28;9011;-59
2023/06/25 02:01:07;;;;;;;;;12.00;12.00;;;;;16.85;61.93;100264.53;5095733;28;8844;-59
2023/06/25 02:03:35;;;;;;;;;10.00;10.00;;;;;16.81;61.85;100255.09;5096420;28;8840;-58
2023/06/25 02:06:03;;;;;;;;;11.00;9.75;;;;;16.78;61.73;100260.78;5096708;28;8861;-58
2023/06/25 02:08:30;;;;;;;;;12.25;12.00;;;;;16.73;62.27;100252.34;5095964;28;8873;-58
2023/06/25 02:10:58;;;;;;;;;11.00;11.00;;;;;16.70;61.94;100252.63;5095074;28;8825;-58
2023/06/25 02:13:26;;;;;;;;;13.00;12.50;;;;;16.66;62.39;100251.25;5096481;28;8863;-58
2023/06/25 02:15:53;;;;;;;;;9.75;9.75;;;;;16.63;62.05;100251.53;5095693;28;8829;-58
2023/06/25 02:18:21;;;;;;;;;11.50;11.50;;;;;16.62;62.17;100257.94;5096225;28;8829;-58
2023/06/25 02:20:49;;;;;;;;;18.50;15.50;;;;;16.62;62.33;100249.84;5095758;28;8809;-59
2023/06/25 02:23:17;;;;;;;;;13.00;12.75;;;;;16.63;62.63;100239.97;5096167;28;8863;-58
2023/06/25 02:25:44;;;;;;;;;10.50;10.50;;;;;16.63;62.29;100238.09;5095776;28;8868;-58
2023/06/25 02:28:12;;;;;;;;;16.00;15.50;;;;;16.64;62.00;100242.47;5095486;28;8859;-60
2023/06/25 02:30:40;;;;;;;;;10.50;10.00;;;;;16.63;62.11;100234.59;5095538;28;8817;-58
2023/06/25 02:33:07;;;;;;;;;18.00;15.00;;;;;16.63;61.95;100230.03;5095831;28;8849;-60
2023/06/25 02:35:35;;;;;;;;;18.75;15.00;;;;;16.63;62.55;100229.22;5095729;28;8848;-58
2023/06/25 02:41:12;;;;;;;;;18.00;16.50;;;;;16.60;62.20;100224.97;5096057;28;8789;-60
2023/06/25 02:43:41;;;;;;;;;11.50;9.75;;;;;16.57;62.64;100224.44;5097029;28;9530;-58
2023/06/25 02:46:08;;;;;;;;;12.75;12.75;;;;;16.53;62.61;100228.41;5095816;28;9572;-58
2023/06/25 02:48:36;;;;;;;;;14.50;14.50;;;;;16.50;62.56;100229.56;5095235;28;8871;-58
2023/06/25 02:51:03;;;;;;;;;11.50;10.00;;;;;16.48;62.76;100223.50;5095506;28;8844;-58
2023/06/25 02:53:31;;;;;;;;;13.50;12.25;;;;;16.47;62.99;100219.13;5095517;28;8857;-58
2023/06/25 02:55:59;;;;;;;;;15.50;14.00;;;;;16.45;62.81;100221.13;5095393;28;8860;-58
2023/06/25 02:58:26;;;;;;;;;10.00;9.75;;;;;16.45;63.10;100221.13;5095720;28;8963;-58
2023/06/25 03:00:54;;;;;;;;;11.00;10.25;;;;;16.44;62.99;100223.94;5095893;28;8837;-58
2023/06/25 03:03:22;;;;;;;;;15.00;13.00;;;;;16.42;62.84;100216.03;5095720;28;8844;-58
2023/06/25 03:05:52;;;;;;;;;12.00;11.50;;;;;16.43;62.86;100227.66;5094948;28;8868;-60
2023/06/25 03:08:20;;;;;;;;;16.00;13.75;;;;;16.42;62.63;100217.91;5095467;28;8829;-58
2023/06/25 03:10:47;;;;;;;;;16.00;16.00;;;;;16.41;62.88;100219.72;5094412;28;8837;-58
2023/06/25 03:13:15;;;;;;;;;13.50;12.00;;;;;16.40;63.00;100211.84;5095372;28;8833;-58
2023/06/25 03:15:42;;;;;;;;;18.00;16.00;;;;;16.40;62.62;100223.41;5094702;28;8845;-58
2023/06/25 03:18:10;;;;;;;;;13.50;12.75;;;;;16.39;63.38;100219.03;5094396;28;8868;-60
2023/06/25 03:20:38;;;;;;;;;12.00;12.00;;;;;16.40;62.86;100219.91;5094890;28;8845;-60
2023/06/25 03:23:06;;;;;;;;;15.25;15.25;;;;;16.40;63.07;100218.03;5095524;28;8829;-59
2023/06/25 03:25:33;;;;;;;;;15.75;13.00;;;;;16.42;63.29;100221.41;5095644;28;8861;-61
2023/06/25 03:28:01;;;;;;;;;15.00;14.00;;;;;16.41;63.41;100214.34;5095130;28;8845;-60
2023/06/25 03:30:29;;;;;;;;;16.25;15.75;;;;;16.44;63.20;100218.56;5095819;28;8899;-60
2023/06/25 03:32:57;;;;;;;;;15.00;15.00;;;;;16.45;62.76;100214.88;5095586;28;8829;-60
2023/06/25 03:35:24;;;;;;;;;17.00;16.00;;;;;16.47;62.88;100212.91;5095359;28;8853;-60
2023/06/25 03:37:52;;;;;;;;;18.50;17.50;;;;;16.50;63.14;100213.41;5094210;28;8865;-60
2023/06/25 03:40:20;;;;;;;;;19.00;17.75;;;;;16.53;62.98;100213.13;5095640;28;8841;-59
2023/06/25 03:42:47;;;;;;;;;13.50;13.50;;;;;16.56;62.39;100212.81;5095649;28;8943;-60
2023/06/25 03:45:16;;;;;;;;;21.25;18.00;;;;;16.59;62.18;100212.53;5095547;28;8853;-60
2023/06/25 03:47:43;;;;;;;;;18.00;16.50;;;;;16.63;63.01;100203.13;5094437;28;8821;-59
2023/06/25 03:50:11;;;;;;;;;22.75;21.00;;;;;16.67;62.80;100199.16;5095466;28;8836;-59
2023/06/25 03:52:39;;;;;;;;;16.75;15.75;;;;;16.71;62.54;100200.53;5097998;28;8845;-60
2023/06/25 03:55:07;;;;;;;;;19.00;18.50;;;;;16.77;62.76;100199.06;5099328;28;9745;-58
2023/06/25 03:57:35;;;;;;;;;25.25;22.25;;;;;16.81;62.46;100195.94;5099039;28;9517;-59
2023/06/25 04:00:04;;;;;;;;;21.00;16.75;;;;;16.87;61.86;100203.34;5099107;28;8987;-59
2023/06/25 04:02:31;;;;;;;;;16.50;15.50;;;;;16.94;62.07;100204.41;5099165;28;8833;-60
2023/06/25 04:04:59;;;;;;;;;25.00;20.00;;;;;17.01;62.00;100201.97;5099317;28;8837;-60
2023/06/25 04:07:27;;;;;;;;;24.25;23.50;;;;;17.09;61.45;100199.34;5098525;28;8848;-58
2023/06/25 04:09:54;;;;;;;;;25.00;24.25;;;;;17.17;61.35;100200.22;5098160;28;8844;-60
2023/06/25 04:12:22;;;;;;;;;20.25;18.50;;;;;17.26;61.27;100207.38;5098304;28;8837;-60
2023/06/25 04:14:50;;;;;;;;;35.50;32.75;;;;;17.35;60.97;100194.78;5098652;28;8845;-58
2023/06/25 04:17:17;;;;;;;;;36.00;32.50;;;;;17.43;61.22;100194.88;5098014;28;8825;-58
2023/06/25 04:19:45;;;;;;;;;37.50;36.50;;;;;17.51;61.30;100201.16;5097850;28;8983;-59
2023/06/25 04:22:13;;;;;;;;;36.25;31.50;;;;;17.58;61.10;100196.84;5098843;28;8877;-60
2023/06/25 04:24:41;;;;;;;;;32.25;29.00;;;;;17.66;60.88;100194.19;5098397;28;8841;-59
2023/06/25 04:27:08;;;;;;;;;30.00;25.00;;;;;17.74;60.65;100191.53;5098474;28;8828;-59
2023/06/25 04:29:36;;;;;;;;;20.50;20.00;;;;;17.86;60.26;100192.94;5098754;28;8844;-58
2023/06/25 04:32:03;;;;;;;;;24.00;22.50;;;;;17.96;60.18;100188.25;5098551;28;8873;-59
2023/06/25 04:34:32;;;;;;;;;25.50;24.00;;;;;18.07;60.29;100190.63;5097816;28;8968;-58
2023/06/25 04:37:00;;;;;;;;;24.25;22.00;;;;;18.17;60.17;100194.06;5078180;28;9533;-59
2023/06/25 04:39:27;;;;;;;;;24.75;21.25;;;;;18.27;59.60;100186.66;5078083;28;8869;-58
2023/06/25 04:41:55;;;;;;;;;27.00;24.00;;;;;18.41;60.56;100199.53;5078076;28;8835;-58
2023/06/25 04:44:23;;;;;;;;;21.00;18.00;;;;;18.52;59.33;100196.50;5078423;28;8847;-58
2023/06/25 04:46:51;;;;;;;;;20.25;18.75;;;;;18.58;59.10;100195.84;5097732;28;8809;-58
2023/06/25 04:49:18;;;;;;;;;25.50;25.00;;;;;18.64;59.73;100186.25;5098049;28;8857;-58
2023/06/25 04:51:46;;;;;;;;;24.25;22.75;;;;;18.70;59.83;100186.44;5097596;28;8845;-58
2023/06/25 04:54:14;;;;;;;;;25.50;25.00;;;;;18.76;59.39;100180.34;5097430;28;9567;-59
2023/06/25 04:56:41;;;;;;;;;20.50;18.25;;;;;18.86;59.29;100178.34;5097556;28;8826;-59
2023/06/25 04:59:09;;;;;;;;;26.00;24.50;;;;;18.94;59.14;100189.13;5098374;28;8829;-59
2023/06/25 05:01:37;;;;;;;;;16.25;15.25;;;;;19.00;58.79;100188.47;5098014;28;8963;-59
2023/06/25 05:04:04;;;;;;;;;18.80;18.80;;;;;19.07;59.01;100178.66;5097509;28;9545;-58
2023/06/25 05:06:32;;;;;;;;;22.00;21.40;;;;;19.13;59.26;100186.06;5097140;28;8898;-60
2023/06/25 05:09:00;;;;;;;;;13.20;12.40;;;;;19.21;58.97;100185.25;5097813;28;8855;-58
2023/06/25 05:11:29;;;;;;;;;18.20;17.40;;;;;19.30;58.79;100179.69;5097650;28;9673;-58
2023/06/25 05:13:56;;;;;;;;;19.40;18.60;;;;;19.40;58.67;100180.34;5097044;28;8825;-60
2023/06/25 05:16:24;;;;;;;;;22.40;19.60;;;;;19.52;58.78;100178.09;5097818;28;8841;-59
2023/06/25 05:18:52;;;;;;;;;19.00;18.80;;;;;19.63;59.05;100183.13;5097839;28;9511;-58
2023/06/25 05:21:20;;;;;;;;;20.40;18.80;;;;;19.73;58.48;100187.31;5097773;28;8863;-60
2023/06/25 05:23:48;;;;;;;;;20.00;16.80;;;;;19.84;58.71;100184.25;5097065;28;8837;-59
2023/06/25 05:26:15;;;;;;;;;16.00;14.20;;;;;19.94;57.80;100187.56;5097973;28;8833;-60
2023/06/25 05:28:43;;;;;;;;;22.40;20.40;;;;;20.03;57.81;100183.00;5097611;28;8837;-59
2023/06/25 05:31:11;;;;;;;;;15.40;15.40;;;;;20.14;57.69;100175.34;5097642;28;9545;-60
2023/06/25 05:33:39;;;;;;;;;19.40;18.40;;;;;20.27;57.51;100188.31;5097377;28;8833;-59
2023/06/25 05:36:07;;;;;;;;;13.60;12.60;;;;;20.40;57.86;100180.47;5097571;28;8913;-60
2023/06/25 05:38:34;;;;;;;;;15.00;12.40;;;;;20.54;57.29;100188.63;5097165;28;8837;-60
2023/06/25 05:41:02;;;;;;;;;17.20;16.80;;;;;20.70;56.93;100182.28;5096649;28;8860;-59
2023/06/25 05:43:30;;;;;;;;;17.00;15.60;;;;;20.85;56.64;100192.13;5097737;28;8810;-58
2023/06/25 05:45:58;;;;;;;;;20.80;20.20;;;;;20.99;56.65;100184.09;5097239;28;8851;-60
2023/06/25 05:48:26;;;;;;;;;12.00;11.20;;;;;21.14;56.27;100186.84;5097510;28;8974;-59
2023/06/25 05:50:54;;;;;;;;;21.00;20.40;;;;;21.26;55.91;100188.91;5097093;28;8971;-60
2023/06/25 05:53:21;;;;;;;;;18.20;17.40;;;;;21.40;56.11;100187.28;5097028;28;8947;-59
2023/06/25 05:55:49;;;;;;;;;11.80;9.00;;;;;21.51;55.78;100178.66;5096613;28;9741;-59
2023/06/25 05:58:17;;;;;;;;;18.60;18.00;;;;;21.62;56.29;100181.75;5096912;28;8860;-59
2023/06/25 06:00:45;;;;;;;;;17.80;16.60;;;;;21.74;55.57;100174.88;5097144;28;8829;-58
2023/06/25 06:03:13;;;;;;;;;16.00;14.20;;;;;21.86;55.71;100170.66;5096305;28;8947;-59
2023/06/25 06:05:41;;;;;;;;;22.20;21.00;;;;;21.97;55.41;100172.06;5096631;28;8847;-58
2023/06/25 06:08:08;;;;;;;;;21.60;17.40;;;;;22.09;55.46;100178.69;5096208;28;8868;-59
2023/06/25 06:10:36;;;;;;;;;14.60;14.00;;;;;22.20;54.83;100173.63;5096304;28;8921;-60
2023/06/25 06:13:04;;;;;;;;;13.40;13.40;;;;;22.31;55.22;100178.53;5095754;28;8817;-59
2023/06/25 06:15:31;;;;;;;;;18.00;16.60;;;;;22.45;54.84;100179.53;5095867;28;9487;-60
2023/06/25 06:17:59;;;;;;;;;16.60;15.40;;;;;22.57;54.64;100184.31;5096543;28;8906;-61
2023/06/25 06:20:27;;;;;;;;;15.80;14.60;;;;;22.69;54.63;100180.03;5096284;28;8841;-58
2023/06/25 06:22:54;;;;;;;;;12.40;11.80;;;;;22.82;54.14;100184.75;5095551;28;8828;-58
2023/06/25 06:25:22;;;;;;;;;13.80;13.20;;;;;22.95;53.97;100183.00;5096384;28;8857;-59
2023/06/25 06:27:52;;;;;;;;;17.20;16.00;;;;;23.11;53.84;100176.44;5095657;28;8864;-60
2023/06/25 06:30:19;;;;;;;;;17.00;16.20;;;;;23.22;53.44;100168.63;5095946;28;8852;-59
2023/06/25 06:32:47;;;;;;;;;15.40;13.60;;;;;23.34;53.83;100166.22;5095373;28;8837;-59
2023/06/25 06:35:15;;;;;;;;;16.20;15.80;;;;;23.47;53.21;100163.59;5096428;28;8829;-60
2023/06/25 06:37:43;;;;;;;;;9.40;8.20;;;;;23.60;53.34;100171.84;5096478;28;8967;-61
2023/06/25 06:40:11;;;;;;;;;16.80;15.20;;;;;23.72;53.39;100168.34;5095827;28;8837;-61
2023/06/25 06:42:38;;;;;;;;;19.00;17.60;;;;;23.84;52.73;100171.34;5095806;28;8818;-59
2023/06/25 06:45:06;;;;;;;;;19.20;13.80;;;;;23.95;52.86;100165.34;5096158;28;8845;-59
2023/06/25 06:47:34;;;;;;;;;15.40;13.60;;;;;24.06;52.58;100167.53;5095925;28;8829;-59
2023/06/25 06:50:02;;;;;;;;;17.80;16.60;;;;;24.15;52.82;100153.53;5095902;28;8837;-59
2023/06/25 06:52:30;;;;;;;;;16.60;16.60;;;;;24.25;52.63;100153.13;5095467;28;8845;-59
2023/06/25 06:54:57;;;;;;;;;11.60;11.00;;;;;24.34;52.84;100154.66;5095623;28;8853;-61
2023/06/25 06:57:25;;;;;;;;;13.80;13.60;;;;;24.46;52.89;100161.16;5095566;28;8829;-61
2023/06/25 06:59:53;;;;;;;;;15.60;15.40;;;;;24.58;52.16;100149.50;5095677;28;8852;-60
2023/06/25 07:02:21;;;;;;;;;10.00;9.60;;;;;24.70;52.23;100150.56;5095265;28;8843;-61
2023/06/25 07:04:48;;;;;;;;;15.00;15.00;;;;;24.82;52.18;100148.06;5095126;28;8968;-60
2023/06/25 07:07:16;;;;;;;;;14.80;13.80;;;;;24.92;51.38;100146.63;5094879;28;8841;-60
2023/06/25 07:09:44;;;;;;;;;14.00;11.80;;;;;25.03;52.14;100147.88;5093903;28;8975;-61
2023/06/25 07:12:12;;;;;;;;;12.80;12.80;;;;;25.16;51.05;100147.84;5094599;28;8829;-61
2023/06/25 07:14:40;;;;;;;;;12.20;11.60;;;;;25.28;51.53;100149.78;5094658;28;8853;-61
2023/06/25 07:17:08;;;;;;;;;14.20;12.20;;;;;25.39;51.29;100151.88;5094856;28;8837;-61
2023/06/25 07:19:35;;;;;;;;;16.00;15.00;;;;;25.51;51.08;100150.19;5094674;28;8848;-60
2023/06/25 07:22:03;;;;;;;;;14.40;14.20;;;;;25.60;50.87;100149.72;5094687;28;8821;-61
2023/06/25 07:24:31;;;;;;;;;13.40;13.40;;;;;25.70;50.34;100146.56;5095180;28;8845;-60
2023/06/25 07:26:59;;;;;;;;;17.00;16.60;;;;;25.80;50.29;100149.69;5098482;28;8837;-59
2023/06/25 07:29:28;;;;;;;;;15.20;13.80;;;;;25.88;50.29;100147.59;5099397;28;9629;-60
2023/06/25 07:31:56;;;;;;;;;13.40;13.20;;;;;25.95;50.48;100148.41;5099189;28;8833;-60
2023/06/25 07:34:24;;;;;;;;;9.20;7.60;;;;;26.05;50.32;100151.50;5098990;28;8837;-62
2023/06/25 07:36:52;;;;;;;;;16.80;14.80;;;;;26.14;50.23;100158.41;5099004;28;8845;-60
2023/06/25 07:39:20;;;;;;;;;16.80;16.60;;;;;26.26;49.94;100150.38;5099027;28;8863;-61
2023/06/25 07:41:48;;;;;;;;;14.00;12.40;;;;;26.36;49.91;100156.22;5098478;28;8828;-59
2023/06/25 07:44:16;;;;;;;;;15.00;15.00;;;;;26.45;49.62;100160.34;5098225;28;8845;-59
2023/06/25 07:47:04;;;;;;;;;13.20;13.00;;;;;26.56;49.90;100152.34;5098760;28;9546;-59
2023/06/25 07:49:32;;;;;;;;;17.00;16.00;;;;;26.63;49.55;100158.59;5098403;28;8829;-59
2023/06/25 07:52:00;;;;;;;;;14.40;14.20;;;;;26.72;49.43;100156.44;5098154;28;8845;-59
2023/06/25 07:54:28;;;;;;;;;15.80;15.40;;;;;26.82;49.07;100151.31;5097824;28;8968;-59
2023/06/25 07:56:56;;;;;;;;;12.00;9.80;;;;;26.93;48.83;100151.44;5098930;28;8860;-60
2023/06/25 07:59:23;;;;;;;;;17.80;15.00;;;;;27.03;48.76;100149.03;5098306;28;8914;-61
2023/06/25 08:02:02;;;;;;;;;13.60;13.60;;;;;27.13;48.75;100154.03;5098656;28;8829;-59
2023/06/25 08:04:30;;;;;;;;;13.20;13.00;;;;;27.22;48.52;100148.09;5097891;28;8836;-59
2023/06/25 08:06:58;;;;;;;;;13.00;13.00;;;;;27.28;48.27;100144.47;5098226;28;8851;-58
2023/06/25 08:09:26;;;;;;;;;10.00;9.00;;;;;27.36;48.51;100135.97;5097862;28;8837;-60
2023/06/25 08:11:54;;;;;;;;;13.00;12.60;;;;;27.46;48.33;100141.75;5097886;28;8829;-59
2023/06/25 08:14:22;;;;;;;;;14.00;12.60;;;;;27.52;48.33;100138.13;5097458;28;8833;-59
2023/06/25 08:16:49;;;;;;;;;13.40;12.40;;;;;27.59;47.85;100133.41;5097128;28;8849;-58
2023/06/25 08:19:17;;;;;;;;;12.60;12.60;;;;;27.68;48.28;100136.69;5097170;28;8880;-59
2023/06/25 08:21:45;;;;;;;;;12.20;11.80;;;;;27.73;47.68;100137.69;5097482;28;8833;-61
2023/06/25 08:24:13;;;;;;;;;14.00;13.40;;;;;27.82;47.83;100140.97;5096716;28;8884;-59
2023/06/25 08:26:41;;;;;;;;;11.40;11.40;;;;;27.88;47.58;100132.69;5097084;28;8992;-60
2023/06/25 08:29:09;;;;;;;;;14.40;13.80;;;;;27.99;47.02;100131.09;5097015;28;9382;-60
2023/06/25 08:31:37;;;;;;;;;13.20;13.00;;;;;28.08;46.83;100130.53;5097659;28;8841;-59
2023/06/25 08:34:06;;;;;;;;;13.00;12.40;;;;;28.16;47.17;100129.41;5097635;28;8853;-61
2023/06/25 08:36:34;;;;;;;;;15.40;14.60;;;;;28.23;46.48;100128.22;5097378;28;8853;-58
2023/06/25 08:39:02;;;;;;;;;15.40;14.20;;;;;28.30;46.51;100123.50;5097121;28;8837;-59
2023/06/25 08:41:30;;;;;;;;;11.80;11.20;;;;;28.35;46.84;100120.94;5096857;28;8830;-61
2023/06/25 08:43:58;;;;;;;;;13.80;12.20;;;;;28.46;45.81;100122.88;5098079;28;8849;-59
2023/06/25 08:46:26;;;;;;;;;14.80;14.80;;;;;28.56;46.03;100120.44;5097166;28;8855;-59
2023/06/25 08:48:55;;;;;;;;;12.00;11.60;;;;;28.63;46.10;100121.19;5096239;28;8841;-59
2023/06/25 08:51:22;;;;;;;;;10.00;10.00;;;;;28.66;46.12;100109.72;5096426;28;8849;-59
2023/06/25 08:53:51;;;;;;;;;14.20;12.60;;;;;28.72;45.43;100108.78;5097634;28;8829;-59
2023/06/25 08:56:19;;;;;;;;;14.00;12.60;;;;;28.81;45.76;100112.88;5097142;28;8841;-60
2023/06/25 08:58:47;;;;;;;;;14.00;12.60;;;;;28.91;45.78;100113.13;5096544;28;8867;-59
2023/06/25 09:01:15;;;;;;;;;12.40;11.80;;;;;29.00;44.84;100108.16;5096179;28;8837;-60
2023/06/25 09:03:43;;;;;;;;;11.00;10.80;;;;;29.04;45.12;100112.13;5096779;28;8837;-59
2023/06/25 09:06:11;;;;;;;;;10.20;10.20;;;;;29.13;44.82;100107.94;5097187;28;8833;-59
2023/06/25 09:08:39;;;;;;;;;15.00;15.00;;;;;29.19;45.27;100107.81;5096889;28;8844;-62
2023/06/25 09:11:07;;;;;;;;;12.60;12.20;;;;;29.26;44.74;100103.06;5096634;28;8833;-60
2023/06/25 09:13:36;;;;;;;;;12.60;11.60;;;;;29.35;45.01;100100.78;5097411;28;8825;-59
2023/06/25 09:16:04;;;;;;;;;11.60;11.60;;;;;29.46;44.30;100103.53;5095879;28;8893;-59
2023/06/25 09:18:34;;;;;;;;;11.20;10.00;;;;;29.55;44.07;100104.00;5095204;28;8825;-59
2023/06/25 09:21:02;;;;;;;;;13.40;12.00;;;;;29.62;43.83;100100.09;5095473;28;8960;-60
2023/06/25 09:23:31;;;;;;;;;16.80;15.60;;;;;29.67;44.13;100108.44;5095300;28;8983;-59
2023/06/25 09:25:59;;;;;;;;;12.00;11.40;;;;;29.74;43.96;100109.13;5096486;28;8919;-59
2023/06/25 09:28:27;;;;;;;;;13.20;11.40;;;;;29.82;43.76;100105.19;5095884;28;8849;-59
2023/06/25 09:30:55;;;;;;;;;12.80;11.80;;;;;29.91;43.83;100107.31;5095835;28;9010;-59
2023/06/25 09:33:23;;;;;;;;;13.40;13.00;;;;;29.99;43.33;100106.94;5094863;28;8845;-59
2023/06/25 09:35:53;;;;;;;;;12.20;12.00;;;;;30.04;43.38;100098.78;5095909;28;8853;-60
2023/06/25 09:38:21;;;;;;;;;12.40;12.00;;;;;30.13;43.22;100099.28;5095799;28;8950;-59
2023/06/25 09:40:49;;;;;;;;;14.60;13.60;;;;;30.19;42.98;100093.63;5095906;28;8841;-59
2023/06/25 09:43:17;;;;;;;;;13.00;12.60;;;;;30.33;42.69;100089.50;5096781;28;8825;-60
2023/06/25 09:45:45;;;;;;;;;12.80;12.40;;;;;30.45;42.58;100092.19;5095526;28;8845;-60
2023/06/25 09:48:13;;;;;;;;;14.00;13.60;;;;;30.54;42.09;100097.06;5095263;28;8849;-60
2023/06/25 09:50:41;;;;;;;;;12.00;12.00;;;;;30.62;42.58;100082.94;5095308;28;8873;-60
2023/06/25 09:53:09;;;;;;;;;9.60;9.60;;;;;30.72;41.74;100088.59;5095353;28;8865;-60
2023/06/25 09:55:37;;;;;;;;;11.40;11.20;;;;;30.79;41.79;100086.53;5095816;28;8845;-59
2023/06/25 09:58:06;;;;;;;;;12.60;12.00;;;;;30.85;41.81;100086.38;5095836;28;8849;-61
2023/06/25 10:00:35;;;;;;;;;13.80;12.80;;;;;30.92;41.70;100086.22;5095458;28;8851;-61
2023/06/25 10:03:04;;;;;;;;;14.60;13.80;;;;;31.11;41.66;100073.88;5096429;28;8844;-59
2023/06/25 10:05:32;;;;;;;;;12.80;12.20;;;;;31.39;40.94;100079.28;5096154;28;8927;-60
2023/06/25 10:08:00;;;;;;;;;12.00;11.00;;;;;31.68;40.41;100081.63;5096010;28;8910;-60
2023/06/25 10:10:28;;;;;;;;;12.20;12.00;;;;;31.90;40.62;100071.50;5075275;28;8828;-60
2023/06/25 10:12:56;;;;;;;;;14.40;14.40;;;;;32.08;39.84;100073.91;5075386;28;8933;-61
2023/06/25 10:15:24;;;;;;;;;12.40;11.40;;;;;32.31;39.55;100064.56;5074727;28;8920;-60
2023/06/25 10:17:52;;;;;;;;;9.00;7.00;;;;;32.66;39.03;100053.84;5077369;28;8886;-61
2023/06/25 10:20:21;;;;;;;;;10.40;9.60;;;;;32.95;38.99;100066.28;5094110;28;8864;-60
2023/06/25 10:22:50;;;;;;;;;14.80;13.00;;;;;33.24;38.74;100053.78;5094792;28;8865;-59
2023/06/25 10:25:18;;;;;;;;;13.80;11.20;;;;;33.49;38.19;100051.22;5095298;28;8845;-60
2023/06/25 10:27:46;;;;;;;;;11.80;11.60;;;;;33.61;38.24;100055.41;5094724;28;8840;-60
2023/06/25 10:30:15;;;;;;;;;12.00;12.00;;;;;33.90;38.20;100053.13;5094350;28;8865;-60
2023/06/25 10:32:43;;;;;;;;;11.60;11.00;;;;;34.28;38.06;100055.47;5094323;28;8864;-60
2023/06/25 10:35:11;;;;;;;;;9.80;9.00;;;;;34.53;36.99;100050.81;5094949;28;8849;-60
2023/06/25 10:37:39;;;;;;;;;12.80;12.80;;;;;34.77;37.14;100049.22;5094557;28;8873;-60
2023/06/25 10:40:07;;;;;;;;;11.20;11.20;;;;;35.00;37.12;100047.81;5094545;28;8853;-61
2023/06/25 10:42:36;;;;;;;;;11.40;9.60;;;;;35.29;36.42;100046.97;5094372;28;8860;-61
2023/06/25 10:45:05;;;;;;;;;11.00;10.80;;;;;35.61;36.65;100043.84;5094014;28;8849;-60
2023/06/25 10:47:33;;;;;;;;;10.20;10.20;;;;;35.88;35.57;100036.00;5092940;28;8978;-59
2023/06/25 10:50:01;;;;;;;;;12.20;11.00;;;;;36.18;35.19;100039.50;5093177;28;8942;-60
2023/06/25 10:52:30;;;;;;;;;12.60;12.60;;;;;36.45;35.42;100043.47;5094501;28;8837;-60
2023/06/25 10:54:58;;;;;;;;;11.20;10.80;;;;;36.78;35.23;100028.00;5094412;28;8853;-60
2023/06/25 10:57:27;;;;;;;;;12.20;11.20;;;;;37.02;34.88;100040.81;5094543;28;8845;-59
2023/06/25 10:59:55;;;;;;;;;11.00;11.00;;;;;37.11;34.80;100033.53;5093129;28;8845;-60
2023/06/25 11:02:23;;;;;;;;;15.60;13.40;;;;;37.14;33.94;100027.41;5094010;28;8942;-61
2023/06/25 11:04:52;;;;;;;;;12.60;12.60;;;;;37.11;34.37;100021.59;5093224;28;8859;-59
2023/06/25 11:07:20;;;;;;;;;13.00;11.40;;;;;37.07;34.27;100029.69;5092860;28;8854;-61
2023/06/25 11:09:50;;;;;;;;;12.00;12.00;;;;;37.20;34.91;100020.66;5092091;28;8938;-59
2023/06/25 11:12:20;;;;;;;;;13.00;12.20;;;;;37.53;34.17;100010.56;5092240;28;8927;-60
2023/06/25 11:14:49;;;;;;;;;10.80;10.80;;;;;37.81;33.44;100012.47;5092857;28;8833;-60
2023/06/25 11:17:17;;;;;;;;;12.60;11.80;;;;;38.11;33.37;100021.28;5091777;28;8841;-62
2023/06/25 11:19:46;;;;;;;;;11.40;11.00;;;;;38.42;32.79;100011.38;5091598;28;8930;-59
2023/06/25 11:22:14;;;;;;;;;11.40;10.80;;;;;38.63;33.06;100017.44;5093308;28;8938;-60
2023/06/25 11:24:42;;;;;;;;;12.20;12.20;;;;;38.79;32.72;100010.47;5093183;28;8842;-60
2023/06/25 11:27:21;;;;;;;;;12.20;11.40;;;;;39.01;32.74;100008.72;5093093;28;8856;-60